San Diego, California
Traffic Map
Current Weather Conditions
San Diego, California
Broken Clouds
Broken Clouds
18°
Feels Like: 18°
Wind Chill: 18° Ceiling: 24000
Heat Index: 18° Visibility: 10mi
Dew Point: 13° Wind: 7mph
Humidity: 70% Direction: 270° (W)
Pressure: 29.94in Gusts: 0mph
Raw Report DataKSAN 040151Z 27006KT 10SM FEW013 SCT025 BKN240 18/13 A2994 RMK AO2 SLP138 T01830128
Traffic Incident Summary
Active as of:
Severity:
Category:
InformationThere was an issue retrieving the traffic information for this location. Please try a different location or try again shortly.
Advertisements
Track Severe Weather on mobile